createdAt,value
2022-10-06T00:00:46.710Z,99482.06
2022-10-06T00:03:13.626Z,99482.06
2022-10-06T00:05:40.467Z,99486.94
2022-10-06T00:08:10.259Z,99501.63
2022-10-06T00:10:37.435Z,99486.19
2022-10-06T00:13:04.238Z,99487.72
2022-10-06T00:15:32.683Z,99482.81
2022-10-06T00:18:26.811Z,99479.78
2022-10-06T00:20:55.506Z,99476.03
2022-10-06T00:23:22.666Z,99492.97
2022-10-06T00:25:51.852Z,99470.41
2022-10-06T00:28:18.725Z,99487.31
2022-10-06T00:30:45.837Z,99476.84
2022-10-06T00:33:17.288Z,99472.28
2022-10-06T00:35:46.677Z,99474.94
2022-10-06T00:38:15.986Z,99491.88
2022-10-06T00:40:45.152Z,99471.53
2022-10-06T00:43:40.398Z,99472.28
2022-10-06T00:46:23.581Z,99473.44
2022-10-06T00:48:58.567Z,99461.00
2022-10-06T00:51:28.784Z,99465.91
2022-10-06T00:53:55.691Z,99484.34
2022-10-06T00:56:22.712Z,99470.81
2022-10-06T00:58:50.387Z,99475.69
2022-10-06T01:01:17.528Z,99493.00
2022-10-06T01:04:17.458Z,99480.94
2022-10-06T01:06:54.636Z,99472.69
2022-10-06T01:09:23.929Z,99480.56
2022-10-06T01:11:53.825Z,99504.66
2022-10-06T01:14:22.725Z,99495.63
2022-10-06T01:17:11.774Z,99485.09
2022-10-06T01:20:09.933Z,99482.09
2022-10-06T01:22:41.821Z,99486.59
2022-10-06T01:25:12.270Z,99486.22
2022-10-06T01:27:42.542Z,99496.00
2022-10-06T01:30:16.237Z,99486.22
2022-10-06T01:32:43.479Z,99495.59
2022-10-06T01:35:10.556Z,99493.00
2022-10-06T01:37:38.933Z,99479.47
2022-10-06T01:40:06.551Z,99480.59
2022-10-06T01:42:35.748Z,99496.38
2022-10-06T01:45:03.675Z,99497.50
2022-10-06T01:47:30.555Z,99505.03
2022-10-06T01:49:57.321Z,99507.66
2022-10-06T01:52:24.161Z,99514.06
2022-10-06T01:54:50.975Z,99476.06
2022-10-06T01:57:17.881Z,99494.50
2022-10-06T01:59:44.713Z,99475.31
2022-10-06T02:02:11.577Z,99476.44
2022-10-06T02:04:38.422Z,99481.72
2022-10-06T02:07:05.824Z,99487.75
2022-10-06T02:09:41.116Z,99507.66
2022-10-06T02:12:08.863Z,99498.63
2022-10-06T02:14:39.290Z,99518.94
2022-10-06T02:17:06.139Z,99500.88
2022-10-06T02:19:32.980Z,99496.00
2022-10-06T02:50:34.186Z,99513.38
2022-10-06T02:53:01.937Z,99535.91
2022-10-06T02:55:29.279Z,99520.63
2022-10-06T02:57:56.124Z,99546.59
2022-10-06T03:00:23.050Z,99529.28
2022-10-06T03:02:50.178Z,99502.94
2022-10-06T03:05:17.124Z,99539.84
2022-10-06T03:07:44.131Z,99552.63
2022-10-06T03:10:10.948Z,99526.34
2022-10-06T03:12:38.199Z,99527.84
2022-10-06T03:15:13.016Z,99541.38
2022-10-06T03:17:40.417Z,99519.97
2022-10-06T03:20:08.051Z,99537.69
2022-10-06T03:22:35.191Z,99531.69
2022-10-06T03:25:02.361Z,99532.44
2022-10-06T03:27:30.012Z,99540.25
2022-10-06T03:30:01.449Z,99525.56
2022-10-06T03:32:31.516Z,99538.38
2022-10-06T03:34:58.394Z,99535.00
2022-10-06T03:37:25.271Z,99535.44
2022-10-06T03:39:52.190Z,99542.53
2022-10-06T03:42:20.092Z,99539.94
2022-10-06T03:44:47.303Z,99537.34
2022-10-06T03:47:17.175Z,99538.84
2022-10-06T03:49:45.075Z,99540.72
2022-10-06T03:52:12.948Z,99553.50
2022-10-06T03:54:39.951Z,99538.47
2022-10-06T03:57:06.753Z,99539.25
2022-10-06T03:59:33.566Z,99549.00
2022-10-06T04:02:01.686Z,99537.72
2022-10-06T04:04:34.315Z,99532.44
2022-10-06T04:07:05.824Z,99540.75
2022-10-06T04:09:32.713Z,99539.25
2022-10-06T04:12:00.721Z,99555.41
2022-10-06T04:14:29.131Z,99544.13
2022-10-06T04:16:56.827Z,99544.53
2022-10-06T04:19:43.935Z,99582.47
2022-10-06T04:22:10.868Z,99570.09
2022-10-06T04:24:37.672Z,99568.59
2022-10-06T04:27:04.879Z,99556.53
2022-10-06T04:29:31.728Z,99556.94
2022-10-06T04:31:58.654Z,99571.97
2022-10-06T04:34:47.604Z,99578.75
2022-10-06T04:37:15.367Z,99539.25
2022-10-06T04:40:03.821Z,99581.75
2022-10-06T04:42:35.234Z,99567.81
2022-10-06T04:45:05.968Z,99583.25
2022-10-06T04:47:33.675Z,99562.19
2022-10-06T04:50:00.707Z,99581.72
2022-10-06T04:52:27.653Z,99564.06
2022-10-06T04:54:54.479Z,99580.59
2022-10-06T04:57:21.630Z,99595.28
2022-10-06T04:59:49.153Z,99583.25
2022-10-06T05:02:17.286Z,99588.13
2022-10-06T05:04:45.638Z,99596.41
2022-10-06T05:07:14.591Z,99597.53
2022-10-06T05:09:41.899Z,99568.19
2022-10-06T05:12:09.544Z,99598.69
2022-10-06T05:14:36.363Z,99603.94
2022-10-06T05:17:04.052Z,99600.56
2022-10-06T05:19:31.506Z,99600.94
2022-10-06T05:21:58.324Z,99602.41
2022-10-06T05:24:29.078Z,99611.81
2022-10-06T05:27:00.848Z,99582.84
2022-10-06T05:30:04.666Z,99599.72
2022-10-06T05:32:35.933Z,99591.81
2022-10-06T05:35:04.673Z,99601.94
2022-10-06T05:37:31.688Z,99586.16
2022-10-06T05:39:58.716Z,99618.53
2022-10-06T05:42:29.563Z,99596.63
2022-10-06T05:44:57.783Z,99601.84
2022-10-06T05:47:24.908Z,99591.75
2022-10-06T05:49:51.936Z,99593.31
2022-10-06T05:52:18.781Z,99591.44
2022-10-06T05:54:45.790Z,99645.69
2022-10-06T05:57:12.763Z,99602.28
2022-10-06T05:59:39.771Z,99603.44
2022-10-06T06:02:09.167Z,99620.81
2022-10-06T06:04:42.382Z,99600.47
2022-10-06T06:07:10.324Z,99588.78
2022-10-06T06:09:39.005Z,99596.72
2022-10-06T06:12:08.595Z,99615.91
2022-10-06T06:14:49.876Z,99612.16
2022-10-06T06:17:21.229Z,99615.16
2022-10-06T06:19:48.114Z,99617.03
2022-10-06T06:22:15.953Z,99622.69
2022-10-06T06:24:45.058Z,99624.16
2022-10-06T06:27:12.324Z,99615.91
2022-10-06T06:29:40.247Z,99612.16
2022-10-06T06:32:10.030Z,99600.47
2022-10-06T06:34:37.332Z,99611.69
2022-10-06T06:37:08.462Z,99613.25
2022-10-06T06:39:39.145Z,99625.59
2022-10-06T06:42:06.212Z,99590.19
2022-10-06T06:44:41.741Z,99616.22
2022-10-06T06:47:17.202Z,99623.03
2022-10-06T06:49:44.217Z,99624.38
2022-10-06T06:52:11.879Z,99627.47
2022-10-06T06:54:40.730Z,99639.97
2022-10-06T06:57:12.020Z,99615.81
2022-10-06T06:59:42.361Z,99594.84
2022-10-06T07:02:11.224Z,99618.00
2022-10-06T07:04:40.599Z,99636.00
2022-10-06T07:07:11.409Z,99602.78
2022-10-06T07:09:38.599Z,99617.22
2022-10-06T07:12:10.331Z,99634.59
2022-10-06T07:14:39.134Z,99630.13
2022-10-06T07:17:06.334Z,99635.34
2022-10-06T07:19:34.131Z,99596.16
2022-10-06T07:22:15.202Z,99628.34
2022-10-06T07:24:45.614Z,99633.47
2022-10-06T07:27:15.145Z,99616.06
2022-10-06T07:29:42.161Z,99608.69
2022-10-06T07:32:09.144Z,99623.31
2022-10-06T07:34:36.157Z,99622.66
2022-10-06T07:37:06.385Z,99619.47
2022-10-06T07:39:34.585Z,99651.22
2022-10-06T07:42:01.376Z,99671.25
2022-10-06T07:44:30.321Z,99655.09
2022-10-06T07:46:57.139Z,99644.97
2022-10-06T07:49:37.548Z,99659.13
2022-10-06T07:52:08.078Z,99648.03
2022-10-06T07:54:35.111Z,99650.69
2022-10-06T07:57:44.302Z,99639.47
2022-10-06T08:00:12.704Z,99658.00
2022-10-06T08:02:39.520Z,99654.28
2022-10-06T08:05:08.715Z,99644.38
2022-10-06T08:07:55.653Z,99614.41
2022-10-06T08:10:22.657Z,99640.69
2022-10-06T08:12:59.899Z,99655.97
2022-10-06T08:15:28.774Z,99660.50
2022-10-06T08:17:55.534Z,99633.25
2022-10-06T08:20:22.375Z,99622.81
2022-10-06T08:23:07.684Z,99637.13
2022-10-06T08:25:35.442Z,99611.00
2022-10-06T08:28:02.410Z,99613.38
2022-10-06T08:30:29.737Z,99602.25
2022-10-06T08:32:56.734Z,99626.97
2022-10-06T08:36:11.365Z,99642.16
2022-10-06T08:38:38.860Z,99632.47
2022-10-06T08:41:24.342Z,99633.66
2022-10-06T08:44:18.600Z,99632.78
2022-10-06T08:46:55.435Z,99621.81
2022-10-06T08:49:25.548Z,99633.56
2022-10-06T08:52:18.916Z,99642.84
2022-10-06T08:55:04.133Z,99626.50
2022-10-06T08:57:36.601Z,99640.19
2022-10-06T09:00:11.692Z,99625.81
2022-10-06T09:02:44.626Z,99626.25
2022-10-06T09:05:20.878Z,99636.03
2022-10-06T09:08:09.337Z,99625.56
2022-10-06T09:10:57.284Z,99648.41
2022-10-06T09:13:32.632Z,99635.06
2022-10-06T09:16:07.121Z,99614.53
2022-10-06T09:19:08.379Z,99636.06
2022-10-06T09:21:51.347Z,99614.75
2022-10-06T09:24:43.568Z,99630.84
2022-10-06T09:27:23.915Z,99613.91
2022-10-06T09:29:51.506Z,99620.38
2022-10-06T09:32:20.791Z,99642.16
2022-10-06T09:34:54.195Z,99630.25
2022-10-06T09:37:21.012Z,99628.63
2022-10-06T09:39:50.768Z,99624.44
2022-10-06T09:42:23.477Z,99627.22
2022-10-06T09:44:50.334Z,99634.66
2022-10-06T09:47:37.565Z,99633.94
2022-10-06T09:50:24.106Z,99629.19
2022-10-06T09:52:59.927Z,99618.00
2022-10-06T09:55:38.056Z,99628.06
2022-10-06T09:58:32.176Z,99631.25
2022-10-06T10:01:00.575Z,99626.81
2022-10-06T10:03:44.507Z,99634.72
2022-10-06T10:06:32.915Z,99642.16
2022-10-06T10:09:20.709Z,99624.91
2022-10-06T10:12:19.391Z,99629.63
2022-10-06T10:14:46.437Z,99623.09
2022-10-06T10:17:24.543Z,99632.31
2022-10-06T10:19:54.206Z,99622.56
2022-10-06T10:22:33.862Z,99610.81
2022-10-06T10:25:38.135Z,99633.66
2022-10-06T10:28:13.918Z,99627.38
2022-10-06T10:31:09.673Z,99625.59
2022-10-06T10:34:05.062Z,99635.97
2022-10-06T10:36:51.518Z,99614.53
2022-10-06T10:39:43.629Z,99630.56
2022-10-06T10:42:30.087Z,99621.59
2022-10-06T10:45:13.304Z,99647.66
2022-10-06T10:47:45.656Z,99633.25
2022-10-06T10:50:51.642Z,99654.38
2022-10-06T10:53:28.221Z,99654.53
2022-10-06T10:55:55.536Z,99653.03
2022-10-06T10:58:54.906Z,99643.53
2022-10-06T11:01:57.841Z,99669.28
2022-10-06T11:04:25.203Z,99668.63
2022-10-06T11:07:10.719Z,99653.13
2022-10-06T11:09:40.197Z,99662.72
2022-10-06T11:12:12.765Z,99666.69
2022-10-06T11:15:12.031Z,99668.28
2022-10-06T11:17:43.571Z,99664.44
2022-10-06T11:20:24.742Z,99680.22
2022-10-06T11:23:08.715Z,99682.66
2022-10-06T11:26:03.300Z,99678.09
2022-10-06T11:29:11.132Z,99668.94
2022-10-06T11:31:52.005Z,99664.94
2022-10-06T11:34:18.960Z,99677.38
2022-10-06T11:36:58.066Z,99674.72
2022-10-06T11:39:50.477Z,99660.75
2022-10-06T11:42:36.196Z,99694.16
2022-10-06T11:45:13.731Z,99661.09
2022-10-06T11:48:08.462Z,99672.63
2022-10-06T11:50:43.284Z,99635.53
2022-10-06T11:53:34.294Z,99684.84
2022-10-06T11:56:16.544Z,99667.88
2022-10-06T11:58:52.564Z,99660.69
2022-10-06T12:01:31.682Z,99669.78
2022-10-06T12:04:10.773Z,99670.91
2022-10-06T12:06:43.740Z,99671.91
2022-10-06T12:09:25.809Z,99692.13
2022-10-06T12:12:26.220Z,99683.81
2022-10-06T12:18:29.143Z,99668.69
2022-10-06T12:21:07.973Z,99677.34
2022-10-06T12:24:05.689Z,99691.06
2022-10-06T12:27:26.067Z,99685.28
2022-10-06T12:30:02.319Z,99657.78
2022-10-06T12:32:42.839Z,99676.53
2022-10-06T12:35:16.676Z,99680.72
2022-10-06T12:37:53.756Z,99664.53
2022-10-06T12:40:39.609Z,99684.56
2022-10-06T12:43:12.766Z,99692.09
2022-10-06T12:45:46.387Z,99682.38
2022-10-06T12:49:06.833Z,99673.19
2022-10-06T12:51:43.393Z,99686.44
2022-10-06T12:54:21.179Z,99713.59
2022-10-06T12:57:03.145Z,99672.44
2022-10-06T12:59:34.814Z,99692.88
2022-10-06T13:02:27.219Z,99694.63
2022-10-06T13:05:11.627Z,99669.59
2022-10-06T13:07:59.769Z,99699.69
2022-10-06T13:10:27.953Z,99692.09
2022-10-06T13:12:55.251Z,99683.09
2022-10-06T13:15:25.066Z,99695.78
2022-10-06T13:17:55.956Z,99680.09
2022-10-06T13:20:48.568Z,99677.19
2022-10-06T13:23:29.407Z,99687.69
2022-10-06T13:26:08.278Z,99678.41
2022-10-06T13:28:44.319Z,99710.38
2022-10-06T13:31:27.002Z,99703.94
2022-10-06T13:34:03.730Z,99696.88
2022-10-06T13:36:34.510Z,99709.41
2022-10-06T13:39:13.330Z,99697.66
2022-10-06T13:41:51.012Z,99693.78
2022-10-06T13:44:42.476Z,99698.69
2022-10-06T13:47:18.642Z,99705.59
2022-10-06T13:50:03.020Z,99717.69
2022-10-06T13:52:33.862Z,99712.06
2022-10-06T13:55:02.618Z,99702.56
2022-10-06T13:57:59.011Z,99700.75
2022-10-06T14:00:34.186Z,99702.25
2022-10-06T14:03:07.264Z,99702.25
2022-10-06T14:05:36.983Z,99691.47
2022-10-06T14:08:25.059Z,99700.06
2022-10-06T14:11:07.373Z,99693.56
2022-10-06T14:14:07.913Z,99717.81
2022-10-06T14:16:43.551Z,99695.59
2022-10-06T14:19:41.156Z,99711.63
2022-10-06T14:22:33.045Z,99708.69
2022-10-06T14:25:00.332Z,99678.88
2022-10-06T14:27:33.329Z,99721.69
2022-10-06T14:30:03.629Z,99697.09
2022-10-06T14:35:17.762Z,99709.19
2022-10-06T14:37:45.992Z,99707.41
2022-10-06T14:40:12.871Z,99710.88
2022-10-06T14:42:39.898Z,99732.75
2022-10-06T14:45:27.178Z,99722.13
2022-10-06T14:47:54.172Z,99721.81
2022-10-06T14:50:21.036Z,99707.91
2022-10-06T14:52:49.714Z,99725.56
2022-10-06T14:55:20.913Z,99733.13
2022-10-06T14:58:01.827Z,99713.22
2022-10-06T15:00:34.565Z,99729.44
2022-10-06T15:03:05.774Z,99721.91
2022-10-06T15:05:32.779Z,99733.53
2022-10-06T15:08:00.097Z,99732.75
2022-10-06T15:10:27.213Z,99745.31
2022-10-06T15:12:54.238Z,99727.19
2022-10-06T15:15:21.345Z,99722.66
2022-10-06T15:17:48.160Z,99732.47
2022-10-06T15:20:15.300Z,99738.16
2022-10-06T15:22:42.259Z,99718.59
2022-10-06T15:25:10.235Z,99721.16
2022-10-06T15:28:16.639Z,99726.84
2022-10-06T15:30:45.809Z,99747.94
2022-10-06T15:33:17.992Z,99728.06
2022-10-06T15:36:03.671Z,99728.47
2022-10-06T15:38:36.041Z,99740.84
2022-10-06T15:41:03.731Z,99722.34
2022-10-06T15:43:32.281Z,99748.09
2022-10-06T15:46:02.448Z,99751.63
2022-10-06T15:48:29.390Z,99743.66
2022-10-06T15:50:56.201Z,99756.81
2022-10-06T15:53:23.149Z,99750.78
2022-10-06T15:55:49.924Z,99764.00
2022-10-06T15:58:25.745Z,99760.28
2022-10-06T16:00:52.741Z,99767.22
2022-10-06T16:03:26.761Z,99759.28
2022-10-06T16:05:57.297Z,99766.56
2022-10-06T16:08:53.157Z,99755.56
2022-10-06T16:11:20.467Z,99750.81
2022-10-06T16:14:10.546Z,99751.66
2022-10-06T16:16:42.630Z,99764.09
2022-10-06T16:19:30.463Z,99750.59
2022-10-06T16:21:59.205Z,99744.63
2022-10-06T16:24:27.437Z,99753.69
2022-10-06T16:26:54.841Z,99734.13
2022-10-06T16:29:22.111Z,99732.66
2022-10-06T16:31:49.389Z,99735.31
2022-10-06T16:34:16.697Z,99738.75
2022-10-06T16:36:43.812Z,99744.44
2022-10-06T16:39:19.333Z,99756.13
2022-10-06T16:41:46.633Z,99772.00
2022-10-06T16:44:13.520Z,99752.09
2022-10-06T16:46:40.901Z,99750.94
2022-10-06T16:49:08.739Z,99753.25
2022-10-06T16:51:43.315Z,99767.97
2022-10-06T16:54:12.742Z,99754.41
2022-10-06T16:56:45.158Z,99739.34
2022-10-06T16:59:15.461Z,99746.56
2022-10-06T17:01:43.483Z,99731.13
2022-10-06T17:04:17.902Z,99748.44
2022-10-06T17:06:54.940Z,99770.66
2022-10-06T17:09:37.288Z,99764.28
2022-10-06T17:12:04.767Z,99758.28
2022-10-06T17:14:34.318Z,99758.28
2022-10-06T17:17:01.636Z,99725.88
2022-10-06T17:19:35.066Z,99728.91
2022-10-06T17:22:02.013Z,99755.28
2022-10-06T17:24:29.421Z,99740.94
2022-10-06T17:26:57.713Z,99738.34
2022-10-06T17:29:54.034Z,99754.88
2022-10-06T17:32:21.599Z,99730.41
2022-10-06T17:35:00.708Z,99755.28
2022-10-06T17:37:30.023Z,99740.97
2022-10-06T17:39:56.872Z,99782.41
2022-10-06T17:42:23.844Z,99724.41
2022-10-06T17:44:50.729Z,99752.25
2022-10-06T17:47:17.964Z,99729.63
2022-10-06T17:49:44.898Z,99743.97
2022-10-06T17:52:11.816Z,99762.41
2022-10-06T17:54:43.009Z,99778.25
2022-10-06T17:57:21.837Z,99758.28
2022-10-06T17:59:48.853Z,99753.38
2022-10-06T18:02:18.655Z,99751.09
2022-10-06T18:04:45.700Z,99771.06
2022-10-06T18:07:35.638Z,99762.78
2022-10-06T18:10:02.559Z,99743.22
2022-10-06T18:12:32.504Z,99751.50
2022-10-06T18:14:59.484Z,99741.72
2022-10-06T18:17:27.625Z,99757.50
2022-10-06T18:19:54.537Z,99752.25
2022-10-06T18:22:21.409Z,99737.94
2022-10-06T18:24:48.324Z,99743.94
2022-10-06T18:27:15.311Z,99738.69
2022-10-06T18:29:42.525Z,99763.16
2022-10-06T18:33:31.046Z,99739.44
2022-10-06T18:37:43.426Z,99731.91
2022-10-06T18:40:11.208Z,99746.22
2022-10-06T18:42:57.186Z,99750.75
2022-10-06T18:45:38.417Z,99733.03
2022-10-06T18:48:06.268Z,99730.00
2022-10-06T18:50:33.259Z,99738.28
2022-10-06T18:53:19.754Z,99741.31
2022-10-06T18:55:46.731Z,99732.97
2022-10-06T18:58:13.639Z,99738.25
2022-10-06T19:00:40.481Z,99734.50
2022-10-06T19:03:07.382Z,99756.72
2022-10-06T19:05:50.581Z,99757.06
2022-10-06T19:08:17.473Z,99734.09
2022-10-06T19:10:44.261Z,99739.38
2022-10-06T19:13:11.148Z,99728.06
2022-10-06T19:15:37.992Z,99711.50
2022-10-06T19:18:05.013Z,99703.97
2022-10-06T19:20:31.821Z,99725.78
2022-10-06T19:22:58.766Z,99751.41
2022-10-06T19:25:25.614Z,99734.78
2022-10-06T19:27:52.624Z,99725.41
2022-10-06T19:30:19.577Z,99732.16
2022-10-06T19:32:46.385Z,99725.00
2022-10-06T19:35:13.266Z,99723.06
2022-10-06T19:37:40.340Z,99724.25
2022-10-06T19:40:07.459Z,99710.31
2022-10-06T19:42:34.346Z,99703.16
2022-10-06T19:45:01.307Z,99731.78
2022-10-06T19:47:28.703Z,99713.28
2022-10-06T19:49:58.917Z,99721.19
2022-10-06T19:52:27.883Z,99735.19
2022-10-06T19:54:54.687Z,99712.22
2022-10-06T19:57:23.004Z,99708.13
2022-10-06T19:59:50.409Z,99711.88
2022-10-06T20:02:27.517Z,99710.00
2022-10-06T20:04:54.457Z,99730.69
2022-10-06T20:07:42.051Z,99716.00
2022-10-06T20:10:10.367Z,99692.69
2022-10-06T20:12:37.941Z,99722.38
2022-10-06T20:15:06.407Z,99716.75
2022-10-06T20:17:33.378Z,99715.66
2022-10-06T20:20:00.717Z,99731.81
2022-10-06T20:22:27.904Z,99717.53
2022-10-06T20:24:54.772Z,99678.03
2022-10-06T20:27:21.629Z,99696.47
2022-10-06T20:29:48.559Z,99720.53
2022-10-06T20:32:15.357Z,99697.97
2022-10-06T20:34:42.172Z,99686.66
2022-10-06T20:37:09.044Z,99713.72
2022-10-06T20:39:35.965Z,99682.88
2022-10-06T20:42:03.772Z,99704.69
2022-10-06T20:44:30.674Z,99672.31
2022-10-06T20:46:57.591Z,99711.09
2022-10-06T20:49:24.651Z,99679.88
2022-10-06T20:51:51.696Z,99688.91
2022-10-06T20:54:20.429Z,99697.16
2022-10-06T20:56:52.108Z,99690.38
2022-10-06T20:59:20.864Z,99689.59
2022-10-06T21:01:47.968Z,99695.28
2022-10-06T21:04:14.933Z,99697.13
2022-10-06T21:06:42.075Z,99698.97
2022-10-06T21:09:13.558Z,99703.81
2022-10-06T21:11:40.581Z,99689.94
2022-10-06T21:14:07.475Z,99707.19
2022-10-06T21:17:00.538Z,99710.22
2022-10-06T21:19:27.424Z,99693.31
2022-10-06T21:21:54.195Z,99718.84
2022-10-06T21:24:21.376Z,99693.28
2022-10-06T21:26:49.020Z,99686.13
2022-10-06T21:29:16.118Z,99676.72
2022-10-06T21:31:44.689Z,99692.88
2022-10-06T21:34:12.380Z,99680.50
2022-10-06T21:36:39.165Z,99696.28
2022-10-06T21:39:06.719Z,99693.28
2022-10-06T21:41:36.033Z,99707.94
2022-10-06T21:44:05.847Z,99693.31
2022-10-06T21:46:52.915Z,99689.50
2022-10-06T21:49:24.898Z,99677.00
2022-10-06T21:51:55.612Z,99672.97
2022-10-06T21:54:23.531Z,99661.22
2022-10-06T21:56:50.908Z,99672.59
2022-10-06T21:59:18.584Z,99679.66
2022-10-06T22:01:46.625Z,99669.13
2022-10-06T22:04:14.495Z,99681.59
2022-10-06T22:06:43.079Z,99654.44
2022-10-06T22:09:15.137Z,99671.75
2022-10-06T22:12:04.250Z,99669.88
2022-10-06T22:14:31.170Z,99677.41
2022-10-06T22:16:57.932Z,99684.88
2022-10-06T22:19:24.805Z,99664.97
2022-10-06T22:21:51.795Z,99667.97
2022-10-06T22:24:23.139Z,99658.50
2022-10-06T22:26:50.112Z,99676.25
2022-10-06T22:29:35.184Z,99674.09
2022-10-06T22:32:02.093Z,99661.69
2022-10-06T22:34:28.929Z,99657.88
2022-10-06T22:36:59.039Z,99642.16
2022-10-06T22:39:25.938Z,99644.34
2022-10-06T22:41:52.824Z,99646.59
2022-10-06T22:44:19.611Z,99627.53
2022-10-06T22:46:46.521Z,99631.66
2022-10-06T22:49:13.383Z,99648.19
2022-10-06T22:51:40.254Z,99641.41
2022-10-06T22:54:07.178Z,99620.69
2022-10-06T22:56:34.705Z,99636.53
2022-10-06T22:59:01.551Z,99638.31
2022-10-06T23:01:29.593Z,99653.34
2022-10-06T23:03:57.483Z,99629.25
2022-10-06T23:06:25.034Z,99658.28
2022-10-06T23:08:52.291Z,99640.91
2022-10-06T23:11:20.499Z,99606.72
2022-10-06T23:13:47.343Z,99622.41
2022-10-06T23:16:16.247Z,99635.91
2022-10-06T23:18:44.278Z,99639.66
2022-10-06T23:21:20.461Z,99624.66
2022-10-06T23:23:49.623Z,99632.94
2022-10-06T23:26:17.466Z,99614.88
2022-10-06T23:28:44.767Z,99612.63
2022-10-06T23:31:12.544Z,99608.91
2022-10-06T23:33:39.852Z,99579.53
2022-10-06T23:36:09.667Z,99612.28
2022-10-06T23:38:37.975Z,99598.41
2022-10-06T23:41:06.290Z,99616.81
2022-10-06T23:43:33.282Z,99606.69
2022-10-06T23:46:00.228Z,99613.41
2022-10-06T23:48:27.089Z,99610.13
2022-10-06T23:51:02.006Z,99603.28
2022-10-06T23:53:30.743Z,99622.91
2022-10-06T23:55:57.951Z,99614.69
2022-10-06T23:58:26.048Z,99607.16
